sensor_id;sensor_type;location;lat;lon;timestamp;pressure;altitude;pressure_sealevel;temperature;humidity
67517;BME280;68821;59.134;37.894;2023-05-19T00:01:31;100886.88;;;10.65;60.74
67517;BME280;68821;59.134;37.894;2023-05-19T00:03:58;100880.78;;;10.61;60.64
67517;BME280;68821;59.134;37.894;2023-05-19T00:06:29;100878.31;;;10.64;60.34
67517;BME280;68821;59.134;37.894;2023-05-19T00:09:00;100889.41;;;10.63;60.41
67517;BME280;68821;59.134;37.894;2023-05-19T00:11:27;100888.53;;;10.63;60.63
67517;BME280;68821;59.134;37.894;2023-05-19T00:13:55;100891.13;;;10.63;60.93
67517;BME280;68821;59.134;37.894;2023-05-19T00:16:22;100894.50;;;10.60;60.58
67517;BME280;68821;59.134;37.894;2023-05-19T00:18:49;100874.53;;;10.50;60.63
67517;BME280;68821;59.134;37.894;2023-05-19T00:21:16;100897.00;;;10.59;60.78
67517;BME280;68821;59.134;37.894;2023-05-19T00:23:42;100891.81;;;10.57;60.91
67517;BME280;68821;59.134;37.894;2023-05-19T00:26:08;100877.03;;;10.49;61.21
67517;BME280;68821;59.134;37.894;2023-05-19T00:28:35;100890.97;;;10.57;60.37
67517;BME280;68821;59.134;37.894;2023-05-19T00:31:02;100897.81;;;10.58;60.36
67517;BME280;68821;59.134;37.894;2023-05-19T00:33:29;100889.22;;;10.56;61.11
67517;BME280;68821;59.134;37.894;2023-05-19T00:35:55;100898.69;;;10.57;60.58
67517;BME280;68821;59.134;37.894;2023-05-19T00:38:21;100902.09;;;10.57;60.13
67517;BME280;68821;59.134;37.894;2023-05-19T00:40:47;100860.34;;;10.33;60.61
67517;BME280;68821;59.134;37.894;2023-05-19T00:43:13;100896.84;;;10.53;59.57
67517;BME280;68821;59.134;37.894;2023-05-19T00:45:39;100905.44;;;10.53;60.41
67517;BME280;68821;59.134;37.894;2023-05-19T00:48:05;100902.81;;;10.50;59.94
67517;BME280;68821;59.134;37.894;2023-05-19T00:50:31;100904.47;;;10.50;60.65
67517;BME280;68821;59.134;37.894;2023-05-19T00:52:57;100896.59;;;10.42;60.34
67517;BME280;68821;59.134;37.894;2023-05-19T00:55:28;100904.38;;;10.45;60.29
67517;BME280;68821;59.134;37.894;2023-05-19T00:57:56;100906.97;;;10.46;60.17
67517;BME280;68821;59.134;37.894;2023-05-19T01:00:22;100909.50;;;10.45;60.33
67517;BME280;68821;59.134;37.894;2023-05-19T01:02:49;100906.94;;;10.45;59.67
67517;BME280;68821;59.134;37.894;2023-05-19T01:05:15;100912.94;;;10.44;59.66
67517;BME280;68821;59.134;37.894;2023-05-19T01:07:42;100910.38;;;10.45;59.32
67517;BME280;68821;59.134;37.894;2023-05-19T01:10:08;100906.97;;;10.46;59.66
67517;BME280;68821;59.134;37.894;2023-05-19T01:12:35;100919.00;;;10.47;59.21
67517;BME280;68821;59.134;37.894;2023-05-19T01:15:04;100919.78;;;10.45;59.58
67517;BME280;68821;59.134;37.894;2023-05-19T01:18:13;100913.78;;;10.44;59.85
67517;BME280;68821;59.134;37.894;2023-05-19T01:20:44;100916.41;;;10.46;59.43
67517;BME280;68821;59.134;37.894;2023-05-19T01:26:59;100918.94;;;10.44;59.21
67517;BME280;68821;59.134;37.894;2023-05-19T01:31:45;100923.22;;;10.45;58.84
67517;BME280;68821;59.134;37.894;2023-05-19T01:34:13;100924.88;;;10.43;58.86
67517;BME280;68821;59.134;37.894;2023-05-19T01:36:43;100926.59;;;10.43;58.27
67517;BME280;68821;59.134;37.894;2023-05-19T01:39:13;100926.63;;;10.44;58.80
67517;BME280;68821;59.134;37.894;2023-05-19T01:41:41;100924.88;;;10.43;58.40
67517;BME280;68821;59.134;37.894;2023-05-19T01:44:08;100918.84;;;10.41;58.37
67517;BME280;68821;59.134;37.894;2023-05-19T01:46:36;100916.25;;;10.40;58.28
67517;BME280;68821;59.134;37.894;2023-05-19T01:49:03;100923.09;;;10.41;57.66
67517;BME280;68821;59.134;37.894;2023-05-19T01:51:30;100917.97;;;10.41;57.60
67517;BME280;68821;59.134;37.894;2023-05-19T01:53:56;100921.38;;;10.40;57.12
67517;BME280;68821;59.134;37.894;2023-05-19T01:59:15;100929.16;;;10.43;57.30
67517;BME280;68821;59.134;37.894;2023-05-19T02:01:52;100927.50;;;10.45;57.53
67517;BME280;68821;59.134;37.894;2023-05-19T02:04:38;100924.06;;;10.44;56.29
67517;BME280;68821;59.134;37.894;2023-05-19T02:10:20;100920.69;;;10.47;56.92
67517;BME280;68821;59.134;37.894;2023-05-19T02:12:52;100924.13;;;10.47;57.51
67517;BME280;68821;59.134;37.894;2023-05-19T02:15:24;100914.59;;;10.43;56.61
67517;BME280;68821;59.134;37.894;2023-05-19T02:17:52;100932.81;;;10.51;56.88
67517;BME280;68821;59.134;37.894;2023-05-19T02:20:20;100931.94;;;10.51;56.73
67517;BME280;68821;59.134;37.894;2023-05-19T02:22:49;100911.97;;;10.40;55.76
67517;BME280;68821;59.134;37.894;2023-05-19T02:25:15;100923.38;;;10.50;56.76
67517;BME280;68821;59.134;37.894;2023-05-19T02:27:42;100925.09;;;10.51;55.94
67517;BME280;68821;59.134;37.894;2023-05-19T02:30:08;100936.38;;;10.56;56.15
67517;BME280;68821;59.134;37.894;2023-05-19T02:32:35;100931.25;;;10.58;55.04
67517;BME280;68821;59.134;37.894;2023-05-19T02:35:02;100943.34;;;10.60;55.70
67517;BME280;68821;59.134;37.894;2023-05-19T02:37:28;100933.06;;;10.60;55.55
67517;BME280;68821;59.134;37.894;2023-05-19T02:39:55;100934.88;;;10.64;55.68
67517;BME280;68821;59.134;37.894;2023-05-19T02:42:22;100928.78;;;10.61;55.41
67517;BME280;68821;59.134;37.894;2023-05-19T02:44:48;100932.31;;;10.66;54.20
67517;BME280;68821;59.134;37.894;2023-05-19T02:47:15;100930.69;;;10.70;54.85
67517;BME280;68821;59.134;37.894;2023-05-19T02:49:41;100939.31;;;10.72;54.89
67517;BME280;68821;59.134;37.894;2023-05-19T02:52:09;100942.81;;;10.74;55.32
67517;BME280;68821;59.134;37.894;2023-05-19T02:54:35;100950.56;;;10.75;54.94
67517;BME280;68821;59.134;37.894;2023-05-19T02:57:01;100941.19;;;10.77;54.37
67517;BME280;68821;59.134;37.894;2023-05-19T02:59:28;100944.56;;;10.76;54.49
67517;BME280;68821;59.134;37.894;2023-05-19T03:01:57;100942.81;;;10.74;55.12
67517;BME280;68821;59.134;37.894;2023-05-19T03:04:24;100940.19;;;10.71;54.77
67517;BME280;68821;59.134;37.894;2023-05-19T03:06:50;100922.72;;;10.59;54.82
67517;BME280;68821;59.134;37.894;2023-05-19T03:09:17;100942.00;;;10.76;54.41
67517;BME280;68821;59.134;37.894;2023-05-19T03:11:43;100930.81;;;10.74;54.68
67517;BME280;68821;59.134;37.894;2023-05-19T03:14:09;100944.63;;;10.78;55.08
67517;BME280;68821;59.134;37.894;2023-05-19T03:16:36;100947.25;;;10.79;54.84
67517;BME280;68821;59.134;37.894;2023-05-19T03:19:03;100937.72;;;10.75;54.82
67517;BME280;68821;59.134;37.894;2023-05-19T03:21:29;100946.41;;;10.80;54.39
67517;BME280;68821;59.134;37.894;2023-05-19T03:23:56;100944.72;;;10.81;54.65
67517;BME280;68821;59.134;37.894;2023-05-19T03:26:22;100949.91;;;10.84;54.40
67517;BME280;68821;59.134;37.894;2023-05-19T03:28:49;100948.34;;;10.89;55.01
67517;BME280;68821;59.134;37.894;2023-05-19T03:31:15;100952.78;;;10.96;55.04
67517;BME280;68821;59.134;37.894;2023-05-19T03:33:42;100949.41;;;10.99;55.23
67517;BME280;68821;59.134;37.894;2023-05-19T03:36:08;100953.03;;;11.05;54.91
67517;BME280;68821;59.134;37.894;2023-05-19T03:38:34;100955.72;;;11.10;54.88
67517;BME280;68821;59.134;37.894;2023-05-19T03:41:01;100948.19;;;11.18;54.40
67517;BME280;68821;59.134;37.894;2023-05-19T03:43:27;100950.00;;;11.22;55.10
67517;BME280;68821;59.134;37.894;2023-05-19T03:45:53;100957.06;;;11.31;54.42
67517;BME280;68821;59.134;37.894;2023-05-19T03:48:19;100958.00;;;11.36;54.61
67517;BME280;68821;59.134;37.894;2023-05-19T03:50:45;100959.81;;;11.40;54.60
67517;BME280;68821;59.134;37.894;2023-05-19T03:53:13;100956.47;;;11.44;54.71
67517;BME280;68821;59.134;37.894;2023-05-19T03:55:39;100965.25;;;11.52;54.39
67517;BME280;68821;59.134;37.894;2023-05-19T03:58:05;100969.63;;;11.56;54.31
67517;BME280;68821;59.134;37.894;2023-05-19T04:00:32;100956.84;;;11.59;54.43
67517;BME280;68821;59.134;37.894;2023-05-19T04:02:58;100962.13;;;11.65;54.51
67517;BME280;68821;59.134;37.894;2023-05-19T04:05:25;100956.16;;;11.68;54.94
67517;BME280;68821;59.134;37.894;2023-05-19T04:07:51;100959.59;;;11.68;55.27
67517;BME280;68821;59.134;37.894;2023-05-19T04:10:17;100959.59;;;11.67;55.40
67517;BME280;68821;59.134;37.894;2023-05-19T04:12:44;100964.84;;;11.72;54.74
67517;BME280;68821;59.134;37.894;2023-05-19T04:15:11;100960.59;;;11.74;55.30
67517;BME280;68821;59.134;37.894;2023-05-19T04:17:38;100964.09;;;11.77;54.94
67517;BME280;68821;59.134;37.894;2023-05-19T04:20:04;100965.91;;;11.81;55.30
67517;BME280;68821;59.134;37.894;2023-05-19T04:22:31;100965.13;;;11.87;55.31
67517;BME280;68821;59.134;37.894;2023-05-19T04:24:57;100973.00;;;11.90;54.90
67517;BME280;68821;59.134;37.894;2023-05-19T04:27:25;100962.75;;;11.95;54.82
67517;BME280;68821;59.134;37.894;2023-05-19T04:29:52;100965.44;;;11.99;55.08
67517;BME280;68821;59.134;37.894;2023-05-19T04:32:19;100972.38;;;12.03;55.07
67517;BME280;68821;59.134;37.894;2023-05-19T04:34:45;100963.84;;;12.04;55.26
67517;BME280;68821;59.134;37.894;2023-05-19T04:37:12;100965.66;;;12.10;54.78
67517;BME280;68821;59.134;37.894;2023-05-19T04:39:41;100968.38;;;12.16;54.75
67517;BME280;68821;59.134;37.894;2023-05-19T04:42:10;100959.84;;;12.20;55.07
67517;BME280;68821;59.134;37.894;2023-05-19T04:44:39;100965.97;;;12.25;54.66
67517;BME280;68821;59.134;37.894;2023-05-19T04:47:08;100972.91;;;12.30;54.95
67517;BME280;68821;59.134;37.894;2023-05-19T04:49:35;100967.78;;;12.31;54.62
67517;BME280;68821;59.134;37.894;2023-05-19T04:52:08;100958.34;;;12.32;54.57
67517;BME280;68821;59.134;37.894;2023-05-19T04:54:38;100964.41;;;12.34;54.78
67517;BME280;68821;59.134;37.894;2023-05-19T04:57:05;100964.47;;;12.37;54.74
67517;BME280;68821;59.134;37.894;2023-05-19T04:59:31;100962.00;;;12.43;55.29
67517;BME280;68821;59.134;37.894;2023-05-19T05:01:57;100963.88;;;12.52;54.69
67517;BME280;68821;59.134;37.894;2023-05-19T05:04:23;100970.09;;;12.61;54.60
67517;BME280;68821;59.134;37.894;2023-05-19T05:06:50;100968.59;;;12.74;54.26
67517;BME280;68821;59.134;37.894;2023-05-19T05:09:17;100963.78;;;12.94;54.14
67517;BME280;68821;59.134;37.894;2023-05-19T05:11:44;100967.50;;;13.13;53.92
67517;BME280;68821;59.134;37.894;2023-05-19T05:14:11;100968.69;;;13.32;53.19
67517;BME280;68821;59.134;37.894;2023-05-19T05:16:37;100962.06;;;13.50;53.09
67517;BME280;68821;59.134;37.894;2023-05-19T05:19:04;100961.41;;;13.64;53.05
67517;BME280;68821;59.134;37.894;2023-05-19T05:21:30;100956.47;;;13.83;52.68
67517;BME280;68821;59.134;37.894;2023-05-19T05:23:57;100963.69;;;14.07;52.32
67517;BME280;68821;59.134;37.894;2023-05-19T05:26:29;100963.09;;;14.33;52.27
67517;BME280;68821;59.134;37.894;2023-05-19T05:28:55;100962.44;;;14.51;51.07
67517;BME280;68821;59.134;37.894;2023-05-19T05:31:21;100963.44;;;14.62;50.94
67517;BME280;68821;59.134;37.894;2023-05-19T05:33:48;100965.31;;;14.77;50.83
67517;BME280;68821;59.134;37.894;2023-05-19T05:36:14;100975.81;;;14.94;50.32
67517;BME280;68821;59.134;37.894;2023-05-19T05:38:40;100966.41;;;15.06;50.40
67517;BME280;68821;59.134;37.894;2023-05-19T05:41:07;100970.00;;;15.22;49.50
67517;BME280;68821;59.134;37.894;2023-05-19T05:43:33;100965.72;;;15.31;50.06
67517;BME280;68821;59.134;37.894;2023-05-19T05:45:59;100970.09;;;15.38;49.39
67517;BME280;68821;59.134;37.894;2023-05-19T05:48:26;100976.13;;;15.35;48.81
67517;BME280;68821;59.134;37.894;2023-05-19T05:50:52;100976.09;;;15.34;49.10
67517;BME280;68821;59.134;37.894;2023-05-19T05:53:20;100985.59;;;15.30;48.67
67517;BME280;68821;59.134;37.894;2023-05-19T05:55:46;100972.63;;;15.28;48.90
67517;BME280;68821;59.134;37.894;2023-05-19T05:58:13;100970.94;;;15.32;48.84
67517;BME280;68821;59.134;37.894;2023-05-19T06:00:41;100976.09;;;15.31;48.96
67517;BME280;68821;59.134;37.894;2023-05-19T06:03:12;100970.88;;;15.24;48.43
67517;BME280;68821;59.134;37.894;2023-05-19T06:05:39;100981.19;;;15.21;48.43
67517;BME280;68821;59.134;37.894;2023-05-19T06:08:05;100985.50;;;15.16;48.71
67517;BME280;68821;59.134;37.894;2023-05-19T06:10:31;100984.59;;;15.14;47.96
67517;BME280;68821;59.134;37.894;2023-05-19T06:12:58;100986.38;;;15.18;48.01
67517;BME280;68821;59.134;37.894;2023-05-19T06:15:24;100992.44;;;15.22;48.42
67517;BME280;68821;59.134;37.894;2023-05-19T06:17:50;100992.47;;;15.29;47.91
67517;BME280;68821;59.134;37.894;2023-05-19T06:20:17;100989.06;;;15.35;47.90
67517;BME280;68821;59.134;37.894;2023-05-19T06:22:43;101000.31;;;15.37;47.83
67517;BME280;68821;59.134;37.894;2023-05-19T06:25:09;100998.56;;;15.33;47.67
67517;BME280;68821;59.134;37.894;2023-05-19T06:27:35;101001.09;;;15.25;47.55
67517;BME280;68821;59.134;37.894;2023-05-19T06:30:02;101006.25;;;15.25;47.64
67517;BME280;68821;59.134;37.894;2023-05-19T06:32:28;101004.56;;;15.27;47.04
67517;BME280;68821;59.134;37.894;2023-05-19T06:34:55;101004.63;;;15.35;46.58
67517;BME280;68821;59.134;37.894;2023-05-19T06:37:22;101008.09;;;15.37;46.65
67517;BME280;68821;59.134;37.894;2023-05-19T06:39:52;101001.19;;;15.36;45.86
67517;BME280;68821;59.134;37.894;2023-05-19T06:42:19;101034.00;;;15.37;46.41
67517;BME280;68821;59.134;37.894;2023-05-19T06:44:49;101006.38;;;15.36;45.90
67517;BME280;68821;59.134;37.894;2023-05-19T06:47:16;101010.72;;;15.42;45.96
67517;BME280;68821;59.134;37.894;2023-05-19T06:49:46;101012.50;;;15.49;44.80
67517;BME280;68821;59.134;37.894;2023-05-19T06:52:15;101003.00;;;15.46;45.51
67517;BME280;68821;59.134;37.894;2023-05-19T06:54:42;101012.47;;;15.47;45.38
67517;BME280;68821;59.134;37.894;2023-05-19T06:57:08;101001.25;;;15.50;45.03
67517;BME280;68821;59.134;37.894;2023-05-19T06:59:34;101014.22;;;15.48;44.53
67517;BME280;68821;59.134;37.894;2023-05-19T07:02:02;101009.81;;;15.37;44.63
67517;BME280;68821;59.134;37.894;2023-05-19T07:04:29;101011.47;;;15.24;44.36
67517;BME280;68821;59.134;37.894;2023-05-19T07:06:55;101013.06;;;15.13;44.49
67517;BME280;68821;59.134;37.894;2023-05-19T07:09:21;101022.47;;;15.03;44.16
67517;BME280;68821;59.134;37.894;2023-05-19T07:11:48;101019.81;;;14.92;44.48
67517;BME280;68821;59.134;37.894;2023-05-19T07:14:14;101005.84;;;14.76;44.30
67517;BME280;68821;59.134;37.894;2023-05-19T07:16:40;101013.56;;;14.72;44.46
67517;BME280;68821;59.134;37.894;2023-05-19T07:19:06;101026.44;;;14.65;44.62
67517;BME280;68821;59.134;37.894;2023-05-19T07:21:33;101022.06;;;14.60;44.82
67517;BME280;68821;59.134;37.894;2023-05-19T07:23:59;101027.22;;;14.60;44.28
67517;BME280;68821;59.134;37.894;2023-05-19T07:26:25;101022.94;;;14.59;44.75
67517;BME280;68821;59.134;37.894;2023-05-19T07:28:52;101028.03;;;14.54;44.26
67517;BME280;68821;59.134;37.894;2023-05-19T07:31:18;101028.06;;;14.57;44.47
67517;BME280;68821;59.134;37.894;2023-05-19T07:33:44;101022.03;;;14.57;44.23
67517;BME280;68821;59.134;37.894;2023-05-19T07:36:11;101028.13;;;14.60;44.17
67517;BME280;68821;59.134;37.894;2023-05-19T07:38:37;101023.91;;;14.68;44.97
67517;BME280;68821;59.134;37.894;2023-05-19T07:41:03;101017.13;;;14.81;44.40
67517;BME280;68821;59.134;37.894;2023-05-19T07:43:29;101029.34;;;14.96;44.50
67517;BME280;68821;59.134;37.894;2023-05-19T07:45:56;101026.06;;;15.17;44.46
67517;BME280;68821;59.134;37.894;2023-05-19T07:48:22;101028.75;;;15.29;43.41
67517;BME280;68821;59.134;37.894;2023-05-19T07:50:51;101030.53;;;15.35;43.41
67517;BME280;68821;59.134;37.894;2023-05-19T07:53:18;101038.31;;;15.40;43.58
67517;BME280;68821;59.134;37.894;2023-05-19T07:55:45;101031.41;;;15.37;43.80
67517;BME280;68821;59.134;37.894;2023-05-19T07:58:11;101035.69;;;15.32;43.40
67517;BME280;68821;59.134;37.894;2023-05-19T08:00:37;101038.25;;;15.26;43.72
67517;BME280;68821;59.134;37.894;2023-05-19T08:03:04;101040.81;;;15.24;43.97
67517;BME280;68821;59.134;37.894;2023-05-19T08:05:30;101037.38;;;15.24;43.37
67517;BME280;68821;59.134;37.894;2023-05-19T08:07:56;101035.66;;;15.29;43.79
67517;BME280;68821;59.134;37.894;2023-05-19T08:10:22;101032.31;;;15.42;43.87
67517;BME280;68821;59.134;37.894;2023-05-19T08:12:48;101032.47;;;15.61;43.67
67517;BME280;68821;59.134;37.894;2023-05-19T08:15:15;101033.44;;;15.78;43.65
67517;BME280;68821;59.134;37.894;2023-05-19T08:17:41;101031.78;;;15.91;43.23
67517;BME280;68821;59.134;37.894;2023-05-19T08:20:08;101025.78;;;15.94;42.91
67517;BME280;68821;59.134;37.894;2023-05-19T08:22:35;101047.34;;;15.89;42.76
67517;BME280;68821;59.134;37.894;2023-05-19T08:25:01;101037.78;;;15.79;42.64
67517;BME280;68821;59.134;37.894;2023-05-19T08:27:31;101046.28;;;15.64;42.60
67517;BME280;68821;59.134;37.894;2023-05-19T08:29:57;101041.00;;;15.49;42.90
67517;BME280;68821;59.134;37.894;2023-05-19T08:32:24;101049.63;;;15.48;42.39
67517;BME280;68821;59.134;37.894;2023-05-19T08:34:50;101041.06;;;15.57;42.80
67517;BME280;68821;59.134;37.894;2023-05-19T08:37:16;101044.59;;;15.69;42.54
67517;BME280;68821;59.134;37.894;2023-05-19T08:39:42;101046.44;;;15.84;42.31
67517;BME280;68821;59.134;37.894;2023-05-19T08:42:08;101043.97;;;16.00;42.52
67517;BME280;68821;59.134;37.894;2023-05-19T08:44:36;101043.13;;;16.12;41.89
67517;BME280;68821;59.134;37.894;2023-05-19T08:47:03;101044.91;;;16.20;41.98
67517;BME280;68821;59.134;37.894;2023-05-19T08:49:34;101044.94;;;16.29;41.61
67517;BME280;68821;59.134;37.894;2023-05-19T08:52:14;101045.84;;;16.39;41.85
67517;BME280;68821;59.134;37.894;2023-05-19T08:54:45;101045.91;;;16.47;41.77
67517;BME280;68821;59.134;37.894;2023-05-19T08:57:16;101049.34;;;16.46;41.69
67517;BME280;68821;59.134;37.894;2023-05-19T08:59:42;101047.59;;;16.39;41.53
67517;BME280;68821;59.134;37.894;2023-05-19T09:02:10;101044.03;;;16.20;41.63
67517;BME280;68821;59.134;37.894;2023-05-19T09:04:39;101053.50;;;16.12;41.80
67517;BME280;68821;59.134;37.894;2023-05-19T09:07:06;101056.09;;;16.12;41.92
67517;BME280;68821;59.134;37.894;2023-05-19T09:09:34;101055.25;;;16.16;42.06
67517;BME280;68821;59.134;37.894;2023-05-19T09:12:00;101043.16;;;16.18;41.90
67517;BME280;68821;59.134;37.894;2023-05-19T09:14:27;101048.34;;;16.19;41.88
67517;BME280;68821;59.134;37.894;2023-05-19T09:16:53;101048.34;;;16.18;42.25
67517;BME280;68821;59.134;37.894;2023-05-19T09:19:19;101050.06;;;16.08;42.05
67517;BME280;68821;59.134;37.894;2023-05-19T09:21:56;101046.56;;;16.00;42.15
67517;BME280;68821;59.134;37.894;2023-05-19T09:24:25;101056.94;;;16.07;42.37
67517;BME280;68821;59.134;37.894;2023-05-19T09:26:54;101045.75;;;16.15;41.70
67517;BME280;68821;59.134;37.894;2023-05-19T09:29:21;101047.50;;;16.19;41.64
67517;BME280;68821;59.134;37.894;2023-05-19T09:31:49;101052.72;;;16.26;41.86
67517;BME280;68821;59.134;37.894;2023-05-19T09:34:16;101054.47;;;16.31;41.56
67517;BME280;68821;59.134;37.894;2023-05-19T09:36:42;101048.41;;;16.27;41.68
67517;BME280;68821;59.134;37.894;2023-05-19T09:39:16;101050.13;;;16.26;41.55
67517;BME280;68821;59.134;37.894;2023-05-19T09:41:43;101055.28;;;16.14;41.71
67517;BME280;68821;59.134;37.894;2023-05-19T09:44:21;101050.84;;;15.96;41.81
67517;BME280;68821;59.134;37.894;2023-05-19T09:46:49;101052.50;;;15.86;42.08
67517;BME280;68821;59.134;37.894;2023-05-19T09:49:23;101048.13;;;15.73;42.33
67517;BME280;68821;59.134;37.894;2023-05-19T09:51:54;101052.31;;;15.62;42.63
67517;BME280;68821;59.134;37.894;2023-05-19T09:54:22;101053.13;;;15.56;42.89
67517;BME280;68821;59.134;37.894;2023-05-19T09:56:59;101038.41;;;15.49;42.60
67517;BME280;68821;59.134;37.894;2023-05-19T09:59:26;101050.53;;;15.56;42.51
67517;BME280;68821;59.134;37.894;2023-05-19T10:01:58;101046.28;;;15.61;42.73
67517;BME280;68821;59.134;37.894;2023-05-19T10:04:27;101042.03;;;15.73;42.87
67517;BME280;68821;59.134;37.894;2023-05-19T10:06:56;101049.88;;;15.80;42.59
67517;BME280;68821;59.134;37.894;2023-05-19T10:09:25;101050.78;;;15.88;42.96
67517;BME280;68821;59.134;37.894;2023-05-19T10:11:52;101049.09;;;15.95;43.12
67517;BME280;68821;59.134;37.894;2023-05-19T10:14:22;101050.84;;;15.96;42.49
67517;BME280;68821;59.134;37.894;2023-05-19T10:16:56;101047.34;;;15.89;42.70
67517;BME280;68821;59.134;37.894;2023-05-19T10:19:24;101052.50;;;15.85;43.21
67517;BME280;68821;59.134;37.894;2023-05-19T10:21:51;101066.22;;;15.72;42.95
67517;BME280;68821;59.134;37.894;2023-05-19T10:24:18;101071.28;;;15.56;43.27
67517;BME280;68821;59.134;37.894;2023-05-19T10:26:48;101063.41;;;15.42;43.51
67517;BME280;68821;59.134;37.894;2023-05-19T10:29:19;101069.34;;;15.29;43.79
67517;BME280;68821;59.134;37.894;2023-05-19T10:31:49;101067.53;;;15.19;44.21
67517;BME280;68821;59.134;37.894;2023-05-19T10:34:28;101067.47;;;15.13;44.31
67517;BME280;68821;59.134;37.894;2023-05-19T10:39:56;101079.44;;;15.00;44.67
67517;BME280;68821;59.134;37.894;2023-05-19T10:45:29;101081.03;;;14.88;44.43
67517;BME280;68821;59.134;37.894;2023-05-19T10:47:58;101077.50;;;14.82;44.93
67517;BME280;68821;59.134;37.894;2023-05-19T10:50:25;101074.09;;;14.86;44.54
67517;BME280;68821;59.134;37.894;2023-05-19T10:52:55;101077.66;;;14.96;45.00
67517;BME280;68821;59.134;37.894;2023-05-19T10:55:50;101075.25;;;15.14;44.88
67517;BME280;68821;59.134;37.894;2023-05-19T10:58:37;101078.06;;;15.39;44.44
67517;BME280;68821;59.134;37.894;2023-05-19T11:01:07;101066.91;;;15.47;44.17
67517;BME280;68821;59.134;37.894;2023-05-19T11:06:30;101076.56;;;15.67;44.33
67517;BME280;68821;59.134;37.894;2023-05-19T11:11:47;101073.31;;;15.96;43.68
67517;BME280;68821;59.134;37.894;2023-05-19T11:14:25;101077.69;;;16.03;43.84
67517;BME280;68821;59.134;37.894;2023-05-19T11:16:58;101082.91;;;16.09;43.42
67517;BME280;68821;59.134;37.894;2023-05-19T11:19:30;101081.19;;;16.11;43.19
67517;BME280;68821;59.134;37.894;2023-05-19T11:22:09;101082.91;;;16.09;43.20
67517;BME280;68821;59.134;37.894;2023-05-19T11:24:37;101076.84;;;16.07;43.31
67517;BME280;68821;59.134;37.894;2023-05-19T11:27:26;101083.72;;;16.03;43.17
67517;BME280;68821;59.134;37.894;2023-05-19T11:32:29;101079.38;;;16.01;42.99
67517;BME280;68821;59.134;37.894;2023-05-19T11:34:56;101082.81;;;15.97;43.10
67517;BME280;68821;59.134;37.894;2023-05-19T11:37:22;101089.75;;;15.99;43.14
67517;BME280;68821;59.134;37.894;2023-05-19T11:39:49;101084.56;;;16.01;43.10
67517;BME280;68821;59.134;37.894;2023-05-19T11:42:15;101087.19;;;16.02;43.24
67517;BME280;68821;59.134;37.894;2023-05-19T11:44:45;101091.47;;;15.99;43.17
67517;BME280;68821;59.134;37.894;2023-05-19T11:47:12;101093.22;;;15.98;43.50
67517;BME280;68821;59.134;37.894;2023-05-19T11:49:42;101084.59;;;16.05;43.52
67517;BME280;68821;59.134;37.894;2023-05-19T11:52:09;101096.75;;;16.16;42.86
67517;BME280;68821;59.134;37.894;2023-05-19T11:54:35;101098.47;;;16.06;43.13
67517;BME280;68821;59.134;37.894;2023-05-19T11:57:02;101099.25;;;15.94;43.03
67517;BME280;68821;59.134;37.894;2023-05-19T11:59:33;101102.63;;;15.87;43.54
67517;BME280;68821;59.134;37.894;2023-05-19T12:02:02;101096.56;;;15.82;43.53
67517;BME280;68821;59.134;37.894;2023-05-19T12:04:29;101091.34;;;15.77;43.26
67517;BME280;68821;59.134;37.894;2023-05-19T12:06:56;101099.13;;;15.80;43.89
67517;BME280;68821;59.134;37.894;2023-05-19T12:09:22;101100.03;;;15.82;43.64
67517;BME280;68821;59.134;37.894;2023-05-19T12:11:50;101099.13;;;15.80;43.93
67517;BME280;68821;59.134;37.894;2023-05-19T12:14:17;101102.63;;;15.82;43.69
67517;BME280;68821;59.134;37.894;2023-05-19T12:16:43;101108.66;;;15.80;43.81
67517;BME280;68821;59.134;37.894;2023-05-19T12:19:09;101097.38;;;15.73;43.96
67517;BME280;68821;59.134;37.894;2023-05-19T12:21:36;101104.19;;;15.63;44.00
67517;BME280;68821;59.134;37.894;2023-05-19T12:24:03;101109.31;;;15.60;43.64
67517;BME280;68821;59.134;37.894;2023-05-19T12:26:30;101110.16;;;15.56;44.09
67517;BME280;68821;59.134;37.894;2023-05-19T12:28:57;101113.63;;;15.58;44.04
67517;BME280;68821;59.134;37.894;2023-05-19T12:31:24;101104.09;;;15.54;43.86
67517;BME280;68821;59.134;37.894;2023-05-19T12:33:51;101117.00;;;15.49;43.81
67517;BME280;68821;59.134;37.894;2023-05-19T12:36:17;101110.97;;;15.49;44.36
67517;BME280;68821;59.134;37.894;2023-05-19T12:38:44;101104.03;;;15.48;44.12
67517;BME280;68821;59.134;37.894;2023-05-19T12:41:12;101110.09;;;15.47;44.11
67517;BME280;68821;59.134;37.894;2023-05-19T12:43:39;101113.56;;;15.49;44.62
67517;BME280;68821;59.134;37.894;2023-05-19T12:46:12;101108.38;;;15.52;44.40
67517;BME280;68821;59.134;37.894;2023-05-19T12:48:42;101107.56;;;15.55;44.04
67517;BME280;68821;59.134;37.894;2023-05-19T12:51:10;101108.44;;;15.57;44.30
67517;BME280;68821;59.134;37.894;2023-05-19T12:53:40;101108.47;;;15.60;44.29
67517;BME280;68821;59.134;37.894;2023-05-19T12:56:14;101113.66;;;15.60;44.32
67517;BME280;68821;59.134;37.894;2023-05-19T12:58:41;101109.34;;;15.59;44.12
67517;BME280;68821;59.134;37.894;2023-05-19T13:01:14;101104.13;;;15.57;44.37
67517;BME280;68821;59.134;37.894;2023-05-19T13:03:41;101108.47;;;15.60;43.88
67517;BME280;68821;59.134;37.894;2023-05-19T13:06:08;101107.63;;;15.61;44.02
67517;BME280;68821;59.134;37.894;2023-05-19T13:08:36;101107.63;;;15.64;44.13
67517;BME280;68821;59.134;37.894;2023-05-19T13:11:03;101111.09;;;15.64;43.66